createdAt,value
2023-01-12T00:00:06.143Z,23.35
2023-01-12T00:02:33.805Z,17.17
2023-01-12T00:05:00.473Z,17.38
2023-01-12T00:07:28.917Z,15.90
2023-01-12T00:09:55.547Z,13.05
2023-01-12T00:12:22.258Z,15.07
2023-01-12T00:14:48.917Z,15.27
2023-01-12T00:17:18.118Z,16.25
2023-01-12T00:19:44.824Z,12.82
2023-01-12T00:22:14.910Z,16.08
2023-01-12T00:24:46.537Z,16.38
2023-01-12T00:27:21.404Z,12.05
2023-01-12T00:29:49.386Z,12.57
2023-01-12T00:32:18.380Z,20.55
2023-01-12T00:34:45.390Z,18.33
2023-01-12T00:37:12.658Z,12.73
2023-01-12T00:39:42.927Z,19.42
2023-01-12T00:42:31.471Z,12.65
2023-01-12T00:45:16.511Z,14.88
2023-01-12T00:47:43.613Z,12.40
2023-01-12T00:50:10.425Z,14.52
2023-01-12T00:52:37.119Z,16.90
2023-01-12T00:55:04.302Z,10.48
2023-01-12T00:57:31.058Z,15.65
2023-01-12T01:00:00.095Z,13.88
2023-01-12T01:02:30.734Z,13.32
2023-01-12T01:04:57.460Z,15.38
2023-01-12T01:07:24.313Z,16.02
2023-01-12T01:09:51.258Z,15.43
2023-01-12T01:12:20.630Z,17.80
2023-01-12T01:17:14.719Z,12.88
2023-01-12T01:19:41.433Z,18.15
2023-01-12T01:22:08.652Z,17.08
2023-01-12T01:24:35.288Z,16.42
2023-01-12T01:27:02.026Z,16.38
2023-01-12T01:29:28.720Z,14.18
2023-01-12T01:31:55.647Z,14.85
2023-01-12T01:34:27.428Z,15.27
2023-01-12T01:36:54.113Z,15.23
2023-01-12T01:39:20.777Z,12.75
2023-01-12T01:41:48.233Z,17.58
2023-01-12T01:44:31.347Z,14.52
2023-01-12T01:47:09.068Z,13.25
2023-01-12T01:49:44.138Z,13.88
2023-01-12T01:52:24.492Z,15.70
2023-01-12T01:55:12.821Z,14.88
2023-01-12T01:57:46.395Z,14.18
2023-01-12T02:00:13.815Z,12.38
2023-01-12T02:02:42.013Z,16.60
2023-01-12T02:05:09.561Z,15.48
2023-01-12T02:07:36.922Z,18.00
2023-01-12T02:10:04.187Z,16.42
2023-01-12T02:12:49.319Z,15.52
2023-01-12T02:15:34.645Z,16.23
2023-01-12T02:18:27.192Z,15.75
2023-01-12T02:21:22.074Z,18.65
2023-01-12T02:24:32.253Z,17.50
2023-01-12T02:27:04.547Z,20.10
2023-01-12T02:30:06.753Z,20.52
2023-01-12T02:33:08.729Z,20.45
2023-01-12T02:35:44.789Z,18.90
2023-01-12T02:38:11.933Z,19.63
2023-01-12T02:40:44.145Z,14.57
2023-01-12T02:43:30.848Z,16.67
2023-01-12T02:46:07.125Z,16.45
2023-01-12T02:48:44.203Z,14.95
2023-01-12T02:51:32.225Z,16.75
2023-01-12T02:54:02.857Z,13.35
2023-01-12T02:56:40.499Z,14.02
2023-01-12T02:59:28.353Z,20.23
2023-01-12T03:04:27.844Z,14.80
2023-01-12T03:06:57.614Z,13.65
2023-01-12T03:09:36.118Z,13.95
2023-01-12T03:12:09.306Z,12.13
2023-01-12T03:14:38.579Z,10.85
2023-01-12T03:17:07.923Z,10.05
2023-01-12T03:22:05.181Z,11.98
2023-01-12T03:24:36.068Z,12.75
2023-01-12T03:27:08.218Z,9.88
2023-01-12T03:29:37.775Z,12.10
2023-01-12T03:32:04.902Z,10.35
2023-01-12T03:34:33.700Z,10.00
2023-01-12T03:37:26.191Z,14.13
2023-01-12T03:40:03.252Z,11.57
2023-01-12T03:42:36.089Z,12.77
2023-01-12T03:45:34.413Z,13.05
2023-01-12T03:48:10.290Z,11.77
2023-01-12T03:50:44.152Z,13.20
2023-01-12T03:53:11.596Z,14.35
2023-01-12T03:55:39.602Z,16.42
2023-01-12T03:58:06.324Z,14.57
2023-01-12T04:00:33.052Z,16.58
2023-01-12T04:03:11.710Z,17.10
2023-01-12T04:05:39.544Z,20.58
2023-01-12T04:08:06.581Z,21.45
2023-01-12T04:10:33.332Z,21.90
2023-01-12T04:13:00.030Z,20.70
2023-01-12T04:15:26.801Z,20.95
2023-01-12T04:17:53.534Z,23.23
2023-01-12T04:20:20.497Z,25.58
2023-01-12T04:22:48.885Z,23.83
2023-01-12T04:25:19.124Z,22.30
2023-01-12T04:27:48.177Z,22.85
2023-01-12T04:30:17.189Z,17.90
2023-01-12T04:32:44.754Z,22.73
2023-01-12T04:35:14.889Z,22.92
2023-01-12T04:37:41.582Z,23.10
2023-01-12T04:40:11.127Z,19.33
2023-01-12T04:42:56.701Z,18.35
2023-01-12T04:45:23.448Z,21.80
2023-01-12T04:47:50.160Z,19.27
2023-01-12T04:50:16.995Z,21.60
2023-01-12T04:52:43.672Z,21.90
2023-01-12T04:55:10.332Z,24.42
2023-01-12T04:57:37.404Z,24.33
2023-01-12T05:00:05.411Z,17.92
2023-01-12T05:02:32.085Z,20.30
2023-01-12T05:04:59.030Z,22.55
2023-01-12T05:07:25.710Z,16.80
2023-01-12T05:10:10.931Z,16.63
2023-01-12T05:12:37.617Z,16.33
2023-01-12T05:15:04.680Z,18.67
2023-01-12T05:17:32.749Z,22.90
2023-01-12T05:20:00.888Z,18.95
2023-01-12T05:22:28.369Z,20.95
2023-01-12T05:24:55.060Z,15.50
2023-01-12T05:27:21.801Z,19.95
2023-01-12T05:29:49.546Z,15.95
2023-01-12T05:32:17.212Z,16.13
2023-01-12T05:34:44.012Z,16.88
2023-01-12T05:37:10.733Z,16.42
2023-01-12T05:39:37.894Z,15.50
2023-01-12T05:42:24.356Z,16.48
2023-01-12T05:44:51.026Z,10.25
2023-01-12T05:47:17.792Z,12.25
2023-01-12T05:49:44.440Z,13.18
2023-01-12T05:52:11.118Z,13.38
2023-01-12T05:54:37.776Z,17.75
2023-01-12T05:57:04.570Z,12.63
2023-01-12T05:59:31.271Z,10.18
2023-01-12T06:01:58.005Z,10.45
2023-01-12T06:04:25.397Z,8.68
2023-01-12T06:06:53.265Z,13.10
2023-01-12T06:09:19.884Z,11.52
2023-01-12T06:12:05.564Z,12.35
2023-01-12T06:14:32.517Z,10.93
2023-01-12T06:16:59.325Z,10.18
2023-01-12T06:19:25.998Z,10.68
2023-01-12T06:21:54.442Z,15.30
2023-01-12T06:24:21.822Z,11.90
2023-01-12T06:26:48.499Z,15.05
2023-01-12T06:29:15.240Z,18.95
2023-01-12T06:31:41.960Z,11.35
2023-01-12T06:34:08.975Z,11.38
2023-01-12T06:36:36.033Z,11.38
2023-01-12T06:39:03.823Z,9.20
2023-01-12T06:41:49.353Z,10.15
2023-01-12T06:44:17.052Z,10.32
2023-01-12T06:46:43.709Z,9.05
2023-01-12T06:49:10.761Z,8.98
2023-01-12T06:51:38.149Z,14.68
2023-01-12T06:54:04.878Z,8.57
2023-01-12T06:56:31.579Z,14.35
2023-01-12T06:58:58.240Z,12.63
2023-01-12T07:01:27.130Z,13.52
2023-01-12T07:03:54.042Z,12.63
2023-01-12T07:06:20.857Z,13.82
2023-01-12T07:08:47.522Z,11.05
2023-01-12T07:11:15.238Z,14.25
2023-01-12T07:13:42.012Z,14.23
2023-01-12T07:16:09.284Z,12.30
2023-01-12T07:18:35.913Z,11.10
2023-01-12T07:21:06.781Z,11.52
2023-01-12T07:23:35.160Z,9.70
2023-01-12T07:26:01.803Z,12.63
2023-01-12T07:28:28.642Z,22.98
2023-01-12T07:31:00.565Z,18.15
2023-01-12T07:33:27.369Z,16.30
2023-01-12T07:35:58.067Z,18.00
2023-01-12T07:38:25.322Z,22.30
2023-01-12T07:40:51.992Z,18.65
2023-01-12T07:43:19.284Z,14.50
2023-01-12T07:45:46.657Z,14.55
2023-01-12T07:48:13.324Z,14.02
2023-01-12T07:50:39.929Z,12.63
2023-01-12T07:53:06.676Z,10.27
2023-01-12T07:55:33.397Z,9.55
2023-01-12T07:58:03.292Z,10.35
2023-01-12T08:00:31.080Z,8.85
2023-01-12T08:03:08.206Z,7.70
2023-01-12T08:05:35.800Z,15.88
2023-01-12T08:08:03.626Z,11.27
2023-01-12T08:10:30.674Z,8.82
2023-01-12T08:12:58.658Z,9.70
2023-01-12T08:15:27.074Z,6.07
2023-01-12T08:18:00.555Z,5.90
2023-01-12T08:20:32.351Z,7.75
2023-01-12T08:23:03.537Z,8.63
2023-01-12T08:25:34.549Z,12.75
2023-01-12T08:28:04.259Z,9.80
2023-01-12T08:30:31.260Z,12.07
2023-01-12T08:32:58.798Z,11.13
2023-01-12T08:35:29.277Z,11.40
2023-01-12T08:37:56.759Z,11.70
2023-01-12T08:40:24.424Z,10.57
2023-01-12T08:42:51.156Z,25.38
2023-01-12T08:45:17.975Z,11.27
2023-01-12T08:47:45.350Z,10.48
2023-01-12T08:50:12.173Z,10.70
2023-01-12T08:52:40.179Z,11.85
2023-01-12T08:55:07.421Z,11.90
2023-01-12T08:57:34.045Z,13.38
2023-01-12T09:00:00.769Z,11.98
2023-01-12T09:02:27.615Z,11.25
2023-01-12T09:04:54.296Z,8.45
2023-01-12T09:07:21.044Z,7.15
2023-01-12T09:09:48.921Z,9.73
2023-01-12T09:12:16.093Z,13.32
2023-01-12T09:14:43.275Z,17.13
2023-01-12T09:17:10.061Z,9.82
2023-01-12T09:19:38.124Z,8.85
2023-01-12T09:22:04.813Z,10.05
2023-01-12T09:24:32.541Z,10.93
2023-01-12T09:27:00.028Z,11.35
2023-01-12T09:29:26.693Z,10.05
2023-01-12T09:31:53.413Z,8.70
2023-01-12T09:34:20.164Z,11.02
2023-01-12T09:36:46.877Z,9.07
2023-01-12T09:39:26.943Z,10.52
2023-01-12T09:42:13.825Z,10.30
2023-01-12T09:44:58.649Z,8.90
2023-01-12T09:47:44.790Z,9.70
2023-01-12T09:50:21.991Z,11.32
2023-01-12T09:53:05.646Z,9.02
2023-01-12T09:56:04.544Z,11.35
2023-01-12T09:58:53.873Z,11.10
2023-01-12T10:01:29.150Z,9.20
2023-01-12T10:03:57.280Z,9.98
2023-01-12T10:06:23.973Z,13.38
2023-01-12T10:08:58.012Z,13.77
2023-01-12T10:11:33.791Z,10.18
2023-01-12T10:14:09.232Z,8.98
2023-01-12T10:16:56.462Z,11.15
2023-01-12T10:19:35.263Z,9.57
2023-01-12T10:22:37.058Z,10.30
2023-01-12T10:25:21.628Z,11.13
2023-01-12T10:27:50.785Z,11.15
2023-01-12T10:30:17.405Z,11.68
2023-01-12T10:32:44.230Z,11.23
2023-01-12T10:35:16.560Z,11.13
2023-01-12T10:37:49.182Z,13.18
2023-01-12T10:40:33.180Z,13.23
2023-01-12T10:43:20.602Z,17.48
2023-01-12T10:46:04.660Z,24.00
2023-01-12T10:48:31.873Z,12.95
2023-01-12T10:51:04.618Z,13.23
2023-01-12T10:53:43.904Z,8.75
2023-01-12T10:56:33.279Z,12.88
2023-01-12T10:59:03.686Z,9.45
2023-01-12T11:02:05.776Z,12.85
2023-01-12T11:05:06.428Z,8.48
2023-01-12T11:10:41.701Z,8.00
2023-01-12T11:13:26.698Z,7.25
2023-01-12T11:16:02.233Z,10.82
2023-01-12T11:18:37.715Z,12.60
2023-01-12T11:21:13.805Z,9.60
2023-01-12T11:24:02.824Z,10.45
2023-01-12T11:27:09.890Z,8.40
2023-01-12T11:29:38.784Z,9.52
2023-01-12T11:32:13.021Z,10.77
2023-01-12T11:34:52.050Z,11.77
2023-01-12T11:37:18.758Z,8.68
2023-01-12T11:39:52.494Z,10.60
2023-01-12T11:42:40.285Z,9.98
2023-01-12T11:45:09.534Z,12.93
2023-01-12T11:48:01.175Z,13.50
2023-01-12T11:50:33.724Z,10.80
2023-01-12T11:53:03.315Z,10.95
2023-01-12T11:58:13.686Z,9.30
2023-01-12T12:00:43.205Z,9.80
2023-01-12T12:05:42.658Z,10.82
2023-01-12T12:08:32.597Z,8.85
2023-01-12T12:11:05.729Z,10.00
2023-01-12T12:13:53.614Z,10.55
2023-01-12T12:16:41.729Z,9.77
2023-01-12T12:19:17.509Z,10.18
2023-01-12T12:22:01.231Z,10.90
2023-01-12T12:24:47.360Z,27.42
2023-01-12T12:27:32.153Z,64.78
2023-01-12T12:30:20.268Z,12.95
2023-01-12T12:35:41.423Z,10.38
2023-01-12T12:38:14.357Z,11.75
2023-01-12T12:41:02.631Z,10.57
2023-01-12T12:43:50.028Z,13.82
2023-01-12T12:46:27.215Z,13.07
2023-01-12T12:49:05.044Z,11.63
2023-01-12T12:51:34.271Z,12.10
2023-01-12T12:54:03.085Z,11.65
2023-01-12T12:56:32.381Z,18.58
2023-01-12T12:59:01.571Z,9.35
2023-01-12T13:01:28.234Z,8.93
2023-01-12T13:03:58.967Z,9.98
2023-01-12T13:06:32.533Z,9.23
2023-01-12T13:09:17.265Z,10.68
2023-01-12T13:12:01.081Z,12.30
2023-01-12T13:14:38.488Z,9.32
2023-01-12T13:17:22.726Z,9.20
2023-01-12T13:20:16.591Z,8.65
2023-01-12T13:22:51.050Z,7.82
2023-01-12T13:25:20.584Z,9.88
2023-01-12T13:27:55.707Z,10.20
2023-01-12T13:30:28.666Z,13.27
2023-01-12T13:32:55.352Z,9.18
2023-01-12T13:35:48.098Z,9.23
2023-01-12T13:38:45.192Z,14.75
2023-01-12T13:41:14.934Z,9.45
2023-01-12T13:43:47.716Z,14.57
2023-01-12T13:46:26.220Z,10.55
2023-01-12T13:48:55.496Z,8.27
2023-01-12T13:51:29.576Z,9.27
2023-01-12T13:54:04.386Z,9.48
2023-01-12T13:56:33.150Z,12.13
2023-01-12T13:59:02.116Z,12.63
2023-01-12T14:01:37.711Z,10.18
2023-01-12T14:04:20.009Z,8.55
2023-01-12T14:07:22.955Z,8.68
2023-01-12T14:09:55.502Z,9.02
2023-01-12T14:12:28.363Z,8.35
2023-01-12T14:15:51.445Z,9.05
2023-01-12T14:18:29.533Z,8.32
2023-01-12T14:20:58.022Z,9.40
2023-01-12T14:23:30.232Z,8.57
2023-01-12T14:26:13.301Z,9.02
2023-01-12T14:28:41.475Z,7.97
2023-01-12T14:31:19.865Z,8.40
2023-01-12T14:34:05.431Z,9.13
2023-01-12T14:36:43.040Z,7.20
2023-01-12T14:39:17.081Z,9.30
2023-01-12T14:42:06.024Z,10.65
2023-01-12T14:44:52.287Z,9.90
2023-01-12T14:47:33.843Z,9.70
2023-01-12T14:50:15.897Z,11.35
2023-01-12T14:52:44.376Z,9.10
2023-01-12T14:55:21.230Z,10.77
2023-01-12T14:57:50.358Z,7.63
2023-01-12T15:00:26.186Z,13.27
2023-01-12T15:02:54.878Z,7.80
2023-01-12T15:05:27.174Z,7.35
2023-01-12T15:07:56.640Z,9.73
2023-01-12T15:10:29.494Z,10.65
2023-01-12T15:12:57.946Z,18.38
2023-01-12T15:15:27.318Z,8.48
2023-01-12T15:21:01.336Z,12.45
2023-01-12T15:23:48.483Z,9.27
2023-01-12T15:26:15.368Z,16.38
2023-01-12T15:28:42.396Z,7.30
2023-01-12T15:31:20.757Z,11.98
2023-01-12T15:33:47.569Z,8.80
2023-01-12T15:36:16.006Z,9.20
2023-01-12T15:38:44.463Z,10.75
2023-01-12T15:41:49.762Z,7.03
2023-01-12T15:44:18.604Z,7.47
2023-01-12T15:46:45.773Z,8.30
2023-01-12T15:49:13.712Z,7.72
2023-01-12T15:51:41.429Z,10.55
2023-01-12T15:54:10.181Z,9.52
2023-01-12T15:56:36.899Z,11.25
2023-01-12T15:59:03.681Z,8.60
2023-01-12T16:01:38.480Z,9.32
2023-01-12T16:04:40.348Z,7.75
2023-01-12T16:06:52.814Z,8.35
2023-01-12T16:09:19.760Z,9.57
2023-01-12T16:11:47.459Z,11.10
2023-01-12T16:14:17.432Z,10.45
2023-01-12T16:16:44.101Z,10.00
2023-01-12T16:19:11.219Z,11.68
2023-01-12T16:21:37.916Z,8.48
2023-01-12T16:24:04.892Z,8.32
2023-01-12T16:26:31.536Z,9.82
2023-01-12T16:28:58.482Z,10.98
2023-01-12T16:31:26.060Z,9.05
2023-01-12T16:33:52.830Z,7.78
2023-01-12T16:36:19.780Z,9.45
2023-01-12T16:38:46.638Z,9.70
2023-01-12T16:41:22.483Z,8.20
2023-01-12T16:43:49.879Z,9.20
2023-01-12T16:46:17.297Z,8.10
2023-01-12T16:48:44.748Z,9.10
2023-01-12T16:51:14.173Z,8.88
2023-01-12T16:56:13.797Z,32.60
2023-01-12T16:58:42.591Z,8.00
2023-01-12T17:01:29.525Z,13.93
2023-01-12T17:03:58.161Z,7.95
2023-01-12T17:06:26.851Z,7.95
2023-01-12T17:08:53.771Z,11.43
2023-01-12T17:11:20.921Z,9.05
2023-01-12T17:13:53.206Z,8.40
2023-01-12T17:16:20.920Z,8.65
2023-01-12T17:18:50.605Z,7.40
2023-01-12T17:21:18.647Z,12.52
2023-01-12T17:23:46.093Z,21.17
2023-01-12T17:26:17.512Z,9.23
2023-01-12T17:28:46.146Z,8.43
2023-01-12T17:31:16.872Z,12.18
2023-01-12T17:33:43.962Z,9.50
2023-01-12T17:36:12.521Z,9.43
2023-01-12T17:38:40.159Z,9.32
2023-01-12T17:41:09.068Z,11.77
2023-01-12T17:43:37.296Z,8.70
2023-01-12T17:46:05.101Z,9.60
2023-01-12T17:48:31.900Z,11.35
2023-01-12T17:50:58.662Z,12.77
2023-01-12T17:53:25.368Z,10.93
2023-01-12T17:55:53.162Z,12.82
2023-01-12T17:58:20.240Z,11.48
2023-01-12T18:00:47.091Z,9.38
2023-01-12T18:03:13.810Z,9.18
2023-01-12T18:05:42.415Z,8.10
2023-01-12T18:08:09.262Z,8.68
2023-01-12T18:10:36.372Z,9.10
2023-01-12T18:13:03.044Z,8.95
2023-01-12T18:15:29.774Z,9.13
2023-01-12T18:17:56.450Z,9.38
2023-01-12T18:20:23.299Z,7.95
2023-01-12T18:22:51.551Z,9.00
2023-01-12T18:25:18.188Z,8.15
2023-01-12T18:27:45.600Z,8.65
2023-01-12T18:30:12.779Z,9.82
2023-01-12T18:32:39.777Z,18.52
2023-01-12T18:35:06.648Z,8.23
2023-01-12T18:37:33.334Z,11.80
2023-01-12T18:40:00.191Z,10.02
2023-01-12T18:42:46.183Z,9.60
2023-01-12T18:45:12.896Z,8.52
2023-01-12T18:47:59.087Z,7.68
2023-01-12T18:50:46.587Z,6.20
2023-01-12T18:53:23.034Z,7.88
2023-01-12T18:55:57.361Z,8.18
2023-01-12T18:58:30.307Z,7.35
2023-01-12T19:01:11.141Z,10.45
2023-01-12T19:03:37.834Z,12.32
2023-01-12T19:06:23.002Z,9.00
2023-01-12T19:09:09.538Z,16.98
2023-01-12T19:11:37.409Z,14.98
2023-01-12T19:14:23.569Z,13.13
2023-01-12T19:17:09.051Z,13.63
2023-01-12T19:19:36.018Z,23.95
2023-01-12T19:22:21.725Z,7.80
2023-01-12T19:25:07.017Z,7.68
2023-01-12T19:27:52.506Z,10.07
2023-01-12T19:30:19.880Z,7.95
2023-01-12T19:32:47.114Z,8.10
2023-01-12T19:35:13.767Z,7.47
2023-01-12T19:37:42.719Z,9.40
2023-01-12T19:40:20.113Z,8.75
2023-01-12T19:43:06.503Z,13.50
2023-01-12T19:45:41.323Z,8.10
2023-01-12T19:48:11.298Z,6.68
2023-01-12T19:50:38.867Z,6.40
2023-01-12T19:53:06.258Z,6.82
2023-01-12T19:55:34.796Z,7.30
2023-01-12T19:58:01.651Z,7.47
2023-01-12T20:00:28.508Z,6.28
2023-01-12T20:02:55.272Z,6.28
2023-01-12T20:05:25.377Z,7.75
2023-01-12T20:07:52.857Z,7.95
2023-01-12T20:10:20.931Z,6.85
2023-01-12T20:12:48.399Z,7.15
2023-01-12T20:15:15.525Z,6.78
2023-01-12T20:17:42.218Z,7.78
2023-01-12T20:20:10.190Z,9.02
2023-01-12T20:22:37.329Z,7.10
2023-01-12T20:25:05.403Z,8.05
2023-01-12T20:27:33.055Z,7.43
2023-01-12T20:30:00.401Z,7.60
2023-01-12T20:32:32.586Z,7.80
2023-01-12T20:35:03.511Z,6.95
2023-01-12T20:37:30.307Z,7.05
2023-01-12T20:39:57.605Z,8.05
2023-01-12T20:42:25.054Z,16.48
2023-01-12T20:44:51.976Z,6.80
2023-01-12T20:47:19.394Z,7.15
2023-01-12T20:49:49.007Z,8.57
2023-01-12T20:52:15.741Z,6.95
2023-01-12T20:54:43.030Z,6.93
2023-01-12T20:57:10.298Z,7.65
2023-01-12T20:59:37.990Z,7.65
2023-01-12T21:02:05.457Z,6.60
2023-01-12T21:04:34.165Z,7.63
2023-01-12T21:07:00.866Z,6.25
2023-01-12T21:09:27.656Z,6.55
2023-01-12T21:11:54.334Z,6.45
2023-01-12T21:14:23.004Z,6.57
2023-01-12T21:16:49.732Z,6.43
2023-01-12T21:19:16.960Z,7.20
2023-01-12T21:21:43.589Z,6.68
2023-01-12T21:24:10.810Z,6.25
2023-01-12T21:26:37.478Z,6.72
2023-01-12T21:29:04.284Z,7.35
2023-01-12T21:31:31.578Z,7.32
2023-01-12T21:33:58.532Z,6.45
2023-01-12T21:36:25.357Z,6.18
2023-01-12T21:38:53.159Z,7.35
2023-01-12T21:41:21.698Z,8.48
2023-01-12T21:43:49.745Z,14.73
2023-01-12T21:46:17.379Z,7.05
2023-01-12T21:48:44.661Z,15.85
2023-01-12T21:51:13.688Z,9.90
2023-01-12T21:53:41.974Z,7.65
2023-01-12T21:56:11.472Z,8.32
2023-01-12T21:58:39.389Z,6.63
2023-01-12T22:01:11.309Z,6.90
2023-01-12T22:03:38.662Z,5.68
2023-01-12T22:06:08.619Z,6.68
2023-01-12T22:08:36.970Z,6.00
2023-01-12T22:11:12.670Z,5.07
2023-01-12T22:13:39.918Z,8.43
2023-01-12T22:16:12.144Z,6.43
2023-01-12T22:21:27.079Z,7.68
2023-01-12T22:23:53.806Z,5.90
2023-01-12T22:26:20.703Z,5.43
2023-01-12T22:28:48.146Z,6.30
2023-01-12T22:31:20.533Z,5.22
2023-01-12T22:34:04.898Z,5.47
2023-01-12T22:36:34.883Z,5.68
2023-01-12T22:39:03.010Z,6.38
2023-01-12T22:41:29.680Z,5.55
2023-01-12T22:43:56.350Z,6.05
2023-01-12T22:46:27.192Z,6.20
2023-01-12T22:48:55.869Z,5.07
2023-01-12T22:51:27.339Z,5.75
2023-01-12T22:53:55.828Z,5.95
2023-01-12T22:56:22.890Z,6.05
2023-01-12T22:58:53.939Z,5.25
2023-01-12T23:01:22.150Z,5.22
2023-01-12T23:03:52.339Z,5.13
2023-01-12T23:06:19.037Z,5.55
2023-01-12T23:08:46.399Z,5.90
2023-01-12T23:11:17.389Z,6.22
2023-01-12T23:13:45.313Z,6.00
2023-01-12T23:16:14.776Z,5.40
2023-01-12T23:18:43.812Z,5.47
2023-01-12T23:21:15.821Z,5.55
2023-01-12T23:24:00.620Z,5.68
2023-01-12T23:26:32.521Z,5.20
2023-01-12T23:29:00.822Z,5.50
2023-01-12T23:31:31.775Z,4.90
2023-01-12T23:33:58.563Z,4.90
2023-01-12T23:36:26.691Z,4.95
2023-01-12T23:38:54.801Z,4.68
2023-01-12T23:41:23.387Z,6.15
2023-01-12T23:43:51.536Z,4.88
2023-01-12T23:46:23.432Z,4.13
2023-01-12T23:48:51.010Z,5.18
2023-01-12T23:51:17.948Z,6.30
2023-01-12T23:53:45.314Z,7.35
2023-01-12T23:56:14.878Z,5.75
